Date,TemperatureHighF,TemperatureAvgF,TemperatureLowF,DewpointHighF,DewpointAvgF,DewpointLowF,HumidityHigh,HumidityAvg,HumidityLow,PressureMaxIn,PressureMinIn,WindSpeedMaxMPH,WindSpeedAvgMPH,GustSpeedMaxMPH,PrecipitationSumIn
2013-9-1,88,77,70,77,72,69,98,86,65,29.94,29.81,16,3,16,0.00
2013-9-2,88,77,71,77,72,69,97,85,60,29.93,29.82,10,1,10,0.00
2013-9-3,80,74,72,72,71,69,97,92,71,29.96,29.83,7,1,7,0.00
2013-9-4,87,76,66,71,66,62,94,73,53,30.09,29.96,12,1,12,0.00
2013-9-5,87,76,66,72,69,65,96,79,56,30.13,30.04,7,1,7,0.00
2013-9-6,83,74,64,68,62,59,94,69,45,30.18,30.07,14,2,14,0.00
2013-9-7,84,72,61,68,64,59,94,75,51,30.15,30.00,9,1,9,0.00
2013-9-8,86,76,65,72,66,63,93,74,49,30.01,29.93,10,1,10,0.00
2013-9-9,88,78,68,71,66,62,93,70,43,30.15,30.00,13,2,14,0.00
2013-9-10,89,78,68,72,69,65,96,76,47,30.25,30.15,10,2,10,0.00
2013-9-11,88,77,67,71,68,61,96,74,45,30.23,30.09,11,2,11,0.00
2013-9-12,88,76,66,71,68,64,94,77,54,30.09,29.85,18,2,18,0.00
2013-9-13,85,76,68,69,64,52,96,69,43,29.90,29.77,14,2,14,0.00
2013-9-14,78,68,60,59,55,50,77,62,50,30.12,29.89,18,3,19,0.00
2013-9-15,83,71,60,68,62,56,90,74,56,30.21,30.10,11,1,11,0.00
2013-9-16,86,76,70,73,68,62,96,77,48,30.15,30.04,12,1,12,0.00
2013-9-17,76,70,64,64,58,54,79,67,51,30.31,30.14,17,3,18,0.00
2013-9-18,76,65,54,60,55,52,93,72,51,30.30,30.18,12,2,12,0.00
2013-9-19,79,67,56,64,59,53,92,77,57,30.21,30.10,6,1,6,0.00
2013-9-20,84,71,62,69,64,60,91,80,58,30.11,29.93,10,2,10,0.00
2013-9-21,76,71,65,70,67,64,96,89,77,29.94,29.63,28,4,28,0.62
2013-9-22,76,66,60,67,60,58,96,83,54,29.84,29.63,24,3,24,0.03
2013-9-23,76,72,65,60,58,57,80,61,53,30.05,30.02,8,1,8,0.00
2013-9-25,68,65,63,64,62,61,96,92,81,29.97,29.88,6,0,7,0.68
2013-9-26,76,66,59,62,59,54,97,79,51,30.04,29.89,13,1,13,0.01
2013-9-27,74,64,53,59,55,51,95,74,51,30.19,30.03,16,2,17,0.00
2013-9-28,72,62,52,56,53,51,94,74,52,30.26,30.17,19,2,19,0.00
2013-9-29,72,62,54,59,55,51,93,78,55,30.19,30.05,13,1,14,0.00
2013-9-30,77,63,53,60,55,51,95,76,50,30.12,30.02,7,1,8,0.00